createdAt,value
2023-03-17T00:01:51.600Z,1.14
2023-03-17T00:04:19.599Z,1.17
2023-03-17T00:06:46.643Z,1.07
2023-03-17T00:09:15.698Z,1.00
2023-03-17T00:11:43.556Z,0.97
2023-03-17T00:14:11.035Z,0.94
2023-03-17T00:16:41.526Z,1.05
2023-03-17T00:19:16.641Z,1.08
2023-03-17T00:21:43.617Z,1.13
2023-03-17T00:24:13.636Z,0.85
2023-03-17T00:26:42.571Z,0.96
2023-03-17T00:29:09.935Z,0.97
2023-03-17T00:31:38.209Z,0.91
2023-03-17T00:34:05.985Z,0.94
2023-03-17T00:36:34.347Z,0.89
2023-03-17T00:39:02.041Z,0.94
2023-03-17T00:41:29.598Z,0.81
2023-03-17T00:43:57.448Z,0.69
2023-03-17T00:46:36.007Z,0.58
2023-03-17T00:49:11.927Z,0.64
2023-03-17T00:51:39.403Z,0.63
2023-03-17T00:54:06.939Z,0.54
2023-03-17T00:56:33.859Z,0.49
2023-03-17T00:59:01.036Z,0.40
2023-03-17T01:01:27.914Z,0.46
2023-03-17T01:03:55.319Z,0.55
2023-03-17T01:06:22.340Z,0.51
2023-03-17T01:08:49.745Z,0.51
2023-03-17T01:11:19.096Z,0.42
2023-03-17T01:13:46.745Z,0.46
2023-03-17T01:16:15.638Z,0.34
2023-03-17T01:18:43.634Z,0.25
2023-03-17T01:21:10.573Z,0.39
2023-03-17T01:23:37.991Z,0.23
2023-03-17T01:26:05.584Z,0.34
2023-03-17T01:28:32.693Z,0.25
2023-03-17T01:31:02.946Z,0.23
2023-03-17T01:33:30.061Z,0.10
2023-03-17T01:35:56.886Z,0.04
2023-03-17T01:38:24.608Z,0.23
2023-03-17T01:40:52.108Z,0.27
2023-03-17T01:43:28.149Z,0.20
2023-03-17T01:46:20.806Z,0.19
2023-03-17T01:49:06.134Z,-0.08
2023-03-17T01:52:01.045Z,0.03
2023-03-17T01:54:42.604Z,-0.02
2023-03-17T01:57:16.524Z,0.05
2023-03-17T01:59:50.171Z,-0.11
2023-03-17T02:02:22.699Z,-0.08
2023-03-17T02:04:52.309Z,-0.08
2023-03-17T02:07:20.730Z,-0.06
2023-03-17T02:09:48.107Z,-0.09
2023-03-17T02:12:16.135Z,-0.10
2023-03-17T02:14:44.131Z,-0.10
2023-03-17T02:17:10.988Z,-0.24
2023-03-17T02:19:38.933Z,-0.24
2023-03-17T02:22:05.951Z,-0.25
2023-03-17T02:24:37.638Z,-0.23
2023-03-17T02:27:11.841Z,-0.18
2023-03-17T02:29:39.615Z,-0.10
2023-03-17T02:32:06.932Z,-0.12
2023-03-17T02:34:34.299Z,-0.31
2023-03-17T02:37:01.430Z,-0.36
2023-03-17T02:39:28.574Z,-0.31
2023-03-17T02:41:55.905Z,-0.25
2023-03-17T02:44:23.034Z,-0.17
2023-03-17T02:46:49.910Z,-0.17
2023-03-17T02:49:17.853Z,-0.30
2023-03-17T02:51:45.305Z,-0.34
2023-03-17T02:54:12.445Z,-0.33
2023-03-17T02:56:39.357Z,-0.33
2023-03-17T02:59:07.259Z,-0.33
2023-03-17T03:01:34.833Z,-0.42
2023-03-17T03:04:02.567Z,-0.34
2023-03-17T03:06:29.479Z,-0.30
2023-03-17T03:08:56.544Z,-0.27
2023-03-17T03:11:23.423Z,-0.30
2023-03-17T03:13:51.092Z,-0.42
2023-03-17T03:16:18.071Z,-0.51
2023-03-17T03:18:45.262Z,-0.36
2023-03-17T03:21:12.077Z,-0.39
2023-03-17T03:23:39.335Z,-0.38
2023-03-17T03:26:06.168Z,-0.57
2023-03-17T03:28:33.353Z,-0.50
2023-03-17T03:31:00.198Z,-0.45
2023-03-17T03:33:28.488Z,-0.42
2023-03-17T03:35:55.282Z,-0.42
2023-03-17T03:38:22.414Z,-0.38
2023-03-17T03:40:49.231Z,-0.52
2023-03-17T03:43:23.516Z,-0.54
2023-03-17T03:45:51.727Z,-0.52
2023-03-17T03:48:18.829Z,-0.47
2023-03-17T03:50:45.779Z,-0.58
2023-03-17T03:53:13.613Z,-0.68
2023-03-17T03:55:40.796Z,-0.69
2023-03-17T03:58:08.839Z,-0.71
2023-03-17T04:00:35.616Z,-0.80
2023-03-17T04:03:02.736Z,-0.84
2023-03-17T04:05:29.562Z,-0.78
2023-03-17T04:07:56.693Z,-0.75
2023-03-17T04:10:23.503Z,-0.75
2023-03-17T04:12:50.735Z,-0.75
2023-03-17T04:15:19.670Z,-0.86
2023-03-17T04:17:47.484Z,-0.74
2023-03-17T04:20:16.034Z,-0.62
2023-03-17T04:22:43.738Z,-0.70
2023-03-17T04:25:14.809Z,-0.76
2023-03-17T04:27:42.814Z,-0.72
2023-03-17T04:30:13.852Z,-0.81
2023-03-17T04:32:41.710Z,-0.74
2023-03-17T04:35:13.794Z,-0.88
2023-03-17T04:37:41.094Z,-0.80
2023-03-17T04:40:12.196Z,-0.85
2023-03-17T04:42:39.621Z,-0.89
2023-03-17T04:45:09.429Z,-0.90
2023-03-17T04:47:36.725Z,-0.93
2023-03-17T04:50:04.408Z,-0.91
2023-03-17T04:52:31.515Z,-0.92
2023-03-17T04:54:58.312Z,-0.97
2023-03-17T04:57:25.497Z,-0.91
2023-03-17T04:59:52.660Z,-0.79
2023-03-17T05:02:19.776Z,-0.91
2023-03-17T05:04:47.775Z,-0.91
2023-03-17T05:07:15.544Z,-0.93
2023-03-17T05:09:42.621Z,-0.93
2023-03-17T05:12:10.258Z,-0.90
2023-03-17T05:14:37.623Z,-0.98
2023-03-17T05:17:04.843Z,-0.99
2023-03-17T05:19:31.718Z,-0.99
2023-03-17T05:21:58.870Z,-0.96
2023-03-17T05:24:25.747Z,-0.90
2023-03-17T05:26:52.997Z,-0.81
2023-03-17T05:29:20.055Z,-0.88
2023-03-17T05:31:47.982Z,-0.81
2023-03-17T05:34:15.998Z,-0.77
2023-03-17T05:36:44.634Z,-0.69
2023-03-17T05:39:13.411Z,-0.57
2023-03-17T05:41:41.628Z,-0.56
2023-03-17T05:44:08.834Z,-0.53
2023-03-17T05:46:36.428Z,-0.50
2023-03-17T05:49:03.818Z,-0.42
2023-03-17T05:51:31.607Z,-0.28
2023-03-17T05:53:58.808Z,-0.25
2023-03-17T05:56:27.277Z,-0.20
2023-03-17T05:58:54.223Z,-0.12
2023-03-17T06:01:21.298Z,-0.04
2023-03-17T06:03:50.056Z,0.07
2023-03-17T06:06:17.248Z,0.21
2023-03-17T06:08:44.284Z,0.33
2023-03-17T06:11:11.801Z,0.37
2023-03-17T06:13:38.571Z,0.51
2023-03-17T06:16:06.138Z,0.61
2023-03-17T06:18:33.077Z,0.69
2023-03-17T06:21:00.345Z,0.72
2023-03-17T06:23:27.109Z,0.82
2023-03-17T06:25:54.417Z,0.88
2023-03-17T06:28:21.213Z,0.98
2023-03-17T06:30:48.422Z,1.05
2023-03-17T06:33:15.882Z,1.22
2023-03-17T06:35:43.060Z,1.35
2023-03-17T06:38:09.996Z,1.50
2023-03-17T06:40:37.180Z,1.63
2023-03-17T06:43:03.975Z,1.74
2023-03-17T06:45:33.137Z,1.86
2023-03-17T06:48:00.233Z,2.03
2023-03-17T06:50:27.463Z,2.14
2023-03-17T06:52:54.234Z,2.11
2023-03-17T06:55:21.597Z,2.14
2023-03-17T06:57:50.505Z,2.24
2023-03-17T07:00:19.581Z,2.38
2023-03-17T07:02:47.425Z,2.57
2023-03-17T07:05:14.732Z,2.68
2023-03-17T07:07:41.625Z,2.79
2023-03-17T07:10:10.461Z,2.98
2023-03-17T07:12:37.647Z,3.18
2023-03-17T07:15:05.464Z,3.38
2023-03-17T07:17:32.288Z,3.50
2023-03-17T07:19:59.564Z,3.72
2023-03-17T07:22:27.156Z,3.83
2023-03-17T07:24:54.368Z,4.10
2023-03-17T07:27:25.316Z,4.26
2023-03-17T07:29:52.906Z,4.48
2023-03-17T07:32:20.072Z,4.81
2023-03-17T07:34:47.144Z,4.99
2023-03-17T07:37:14.210Z,5.12
2023-03-17T07:39:42.019Z,5.37
2023-03-17T07:42:12.135Z,5.51
2023-03-17T07:44:41.529Z,5.67
2023-03-17T07:47:09.055Z,5.81
2023-03-17T07:49:41.801Z,5.92
2023-03-17T07:52:10.981Z,6.10
2023-03-17T07:54:42.239Z,6.27
2023-03-17T07:57:09.877Z,6.47
2023-03-17T07:59:38.334Z,6.66
2023-03-17T08:02:05.554Z,7.01
2023-03-17T08:04:32.793Z,7.14
2023-03-17T08:06:59.612Z,7.12
2023-03-17T08:09:27.208Z,7.28
2023-03-17T08:11:54.295Z,7.46
2023-03-17T08:14:21.594Z,7.67
2023-03-17T08:16:48.606Z,7.81
2023-03-17T08:19:16.311Z,8.00
2023-03-17T08:21:43.228Z,8.15
2023-03-17T08:24:10.968Z,8.43
2023-03-17T08:26:37.869Z,8.21
2023-03-17T08:29:05.263Z,8.18
2023-03-17T08:31:34.014Z,8.32
2023-03-17T08:34:02.774Z,8.44
2023-03-17T08:36:29.730Z,8.48
2023-03-17T08:38:56.807Z,8.57
2023-03-17T08:41:25.228Z,8.21
2023-03-17T08:43:52.486Z,7.79
2023-03-17T08:46:28.594Z,8.20
2023-03-17T08:48:56.916Z,8.17
2023-03-17T08:51:26.756Z,8.41
2023-03-17T08:53:54.986Z,8.98
2023-03-17T08:56:22.581Z,9.27
2023-03-17T08:58:50.821Z,9.53
2023-03-17T09:01:20.869Z,9.60
2023-03-17T09:03:48.391Z,9.41
2023-03-17T09:06:15.681Z,9.30
2023-03-17T09:08:47.753Z,9.67
2023-03-17T09:11:17.766Z,9.89
2023-03-17T09:13:49.610Z,9.76
2023-03-17T09:16:18.081Z,9.00
2023-03-17T09:18:46.994Z,9.46
2023-03-17T09:21:14.950Z,9.60
2023-03-17T09:23:42.593Z,10.12
2023-03-17T09:26:10.291Z,10.31
2023-03-17T09:28:37.449Z,10.81
2023-03-17T09:31:07.738Z,11.17
2023-03-17T09:33:35.009Z,11.50
2023-03-17T09:36:02.103Z,11.65
2023-03-17T09:38:29.899Z,11.81
2023-03-17T09:41:20.873Z,11.29
2023-03-17T09:44:20.026Z,11.49
2023-03-17T09:46:55.960Z,11.90
2023-03-17T09:49:42.620Z,12.13
2023-03-17T09:52:15.040Z,12.18
2023-03-17T09:54:42.794Z,12.44
2023-03-17T09:57:38.141Z,12.31
2023-03-17T10:00:16.013Z,12.64
2023-03-17T10:02:43.279Z,12.75
2023-03-17T10:05:17.417Z,12.52
2023-03-17T10:07:53.445Z,11.84
2023-03-17T10:10:34.877Z,11.86
2023-03-17T10:13:16.246Z,11.48
2023-03-17T10:16:28.482Z,11.84
2023-03-17T10:19:00.490Z,12.37
2023-03-17T10:21:32.126Z,12.47
2023-03-17T10:23:59.607Z,12.10
2023-03-17T10:26:32.856Z,11.59
2023-03-17T10:29:04.122Z,12.66
2023-03-17T10:31:34.829Z,12.88
2023-03-17T10:34:15.809Z,13.46
2023-03-17T10:36:47.051Z,13.85
2023-03-17T10:39:19.652Z,12.68
2023-03-17T10:42:09.107Z,13.49
2023-03-17T10:44:35.949Z,13.80
2023-03-17T10:47:03.713Z,12.63
2023-03-17T10:49:36.844Z,13.60
2023-03-17T10:52:08.071Z,13.52
2023-03-17T10:54:37.035Z,13.89
2023-03-17T10:57:08.206Z,14.24
2023-03-17T10:59:48.138Z,14.04
2023-03-17T11:02:30.597Z,12.55
2023-03-17T11:05:04.847Z,13.40
2023-03-17T11:07:40.684Z,13.84
2023-03-17T11:10:19.528Z,13.46
2023-03-17T11:12:52.980Z,14.34
2023-03-17T11:15:20.612Z,14.73
2023-03-17T11:17:53.672Z,14.97
2023-03-17T11:20:36.229Z,15.76
2023-03-17T11:23:37.495Z,16.03
2023-03-17T11:26:25.928Z,16.05
2023-03-17T11:29:27.273Z,15.79
2023-03-17T11:32:15.371Z,15.81
2023-03-17T11:35:06.565Z,15.82
2023-03-17T11:37:36.130Z,15.75
2023-03-17T11:40:19.536Z,15.02
2023-03-17T11:43:20.385Z,15.33
2023-03-17T11:45:58.189Z,15.00
2023-03-17T11:48:32.827Z,13.67
2023-03-17T11:51:16.223Z,14.37
2023-03-17T11:54:10.792Z,14.56
2023-03-17T11:56:59.906Z,14.95
2023-03-17T11:59:42.263Z,15.36
2023-03-17T12:02:36.978Z,15.85
2023-03-17T12:05:07.989Z,16.39
2023-03-17T12:07:55.432Z,16.14
2023-03-17T12:10:36.393Z,17.65
2023-03-17T12:13:22.075Z,18.45
2023-03-17T12:15:54.082Z,18.68
2023-03-17T12:18:24.061Z,18.89
2023-03-17T12:21:01.840Z,19.45
2023-03-17T12:23:38.257Z,19.46
2023-03-17T12:26:11.092Z,19.44
2023-03-17T12:28:52.351Z,19.41
2023-03-17T12:31:31.488Z,20.15
2023-03-17T12:34:16.251Z,19.65
2023-03-17T12:36:43.993Z,17.90
2023-03-17T12:39:16.348Z,19.82
2023-03-17T12:41:46.543Z,19.20
2023-03-17T12:44:39.250Z,19.92
2023-03-17T12:47:30.747Z,20.21
2023-03-17T12:50:19.781Z,20.62
2023-03-17T12:53:01.593Z,19.09
2023-03-17T12:55:32.220Z,20.52
2023-03-17T12:58:18.111Z,20.64
2023-03-17T13:01:10.181Z,20.90
2023-03-17T13:03:45.826Z,21.11
2023-03-17T13:06:20.844Z,21.49
2023-03-17T13:08:52.044Z,20.76
2023-03-17T13:11:26.143Z,19.97
2023-03-17T13:14:08.613Z,20.60
2023-03-17T13:16:41.229Z,19.95
2023-03-17T13:19:17.394Z,19.66
2023-03-17T13:21:49.982Z,19.77
2023-03-17T13:24:16.940Z,20.03
2023-03-17T13:27:04.571Z,18.92
2023-03-17T13:29:34.859Z,19.60
2023-03-17T13:32:17.194Z,19.53
2023-03-17T13:35:16.742Z,19.96
2023-03-17T13:38:13.100Z,19.01
2023-03-17T13:40:48.315Z,18.00
2023-03-17T13:43:49.297Z,18.97
2023-03-17T13:46:34.612Z,17.21
2023-03-17T13:49:30.042Z,17.14
2023-03-17T13:52:17.597Z,16.16
2023-03-17T13:55:02.107Z,15.39
2023-03-17T13:57:30.611Z,14.36
2023-03-17T14:00:24.460Z,13.69
2023-03-17T14:03:20.253Z,13.62
2023-03-17T14:05:50.303Z,13.73
2023-03-17T14:08:39.157Z,13.14
2023-03-17T14:11:27.629Z,12.54
2023-03-17T14:14:32.007Z,12.60
2023-03-17T14:17:57.492Z,12.54
2023-03-17T14:20:27.066Z,12.63
2023-03-17T14:22:58.913Z,12.67
2023-03-17T14:25:44.579Z,12.48
2023-03-17T14:28:16.663Z,12.48
2023-03-17T14:30:52.764Z,12.70
2023-03-17T14:33:28.580Z,12.53
2023-03-17T14:36:04.365Z,12.50
2023-03-17T14:38:34.140Z,12.87
2023-03-17T14:41:08.508Z,12.73
2023-03-17T14:43:36.629Z,12.80
2023-03-17T14:46:06.155Z,12.70
2023-03-17T14:48:37.071Z,12.65
2023-03-17T14:51:08.265Z,12.94
2023-03-17T14:53:44.922Z,13.24
2023-03-17T14:56:13.004Z,13.68
2023-03-17T14:58:43.046Z,14.61
2023-03-17T15:01:17.966Z,14.33
2023-03-17T15:04:05.089Z,14.73
2023-03-17T15:06:34.074Z,16.15
2023-03-17T15:09:18.252Z,18.43
2023-03-17T15:11:46.802Z,19.84
2023-03-17T15:14:24.109Z,20.65
2023-03-17T15:16:52.636Z,21.80
2023-03-17T15:19:25.842Z,21.62
2023-03-17T15:21:59.673Z,19.93
2023-03-17T15:24:26.721Z,20.56
2023-03-17T15:27:06.111Z,19.82
2023-03-17T15:29:33.578Z,19.43
2023-03-17T15:32:09.315Z,18.37
2023-03-17T15:34:36.544Z,19.92
2023-03-17T15:37:03.491Z,18.94
2023-03-17T15:39:30.541Z,18.26
2023-03-17T15:41:57.322Z,19.59
2023-03-17T15:44:24.377Z,19.33
2023-03-17T15:46:51.229Z,16.28
2023-03-17T15:49:18.295Z,16.60
2023-03-17T15:51:48.102Z,15.45
2023-03-17T15:54:15.546Z,13.84
2023-03-17T15:56:43.258Z,12.68
2023-03-17T15:59:12.093Z,12.49
2023-03-17T16:01:39.581Z,12.34
2023-03-17T16:04:07.157Z,11.97
2023-03-17T16:06:34.802Z,11.87
2023-03-17T16:09:02.082Z,11.67
2023-03-17T16:11:31.351Z,11.50
2023-03-17T16:14:00.089Z,11.37
2023-03-17T16:16:43.423Z,11.18
2023-03-17T16:19:20.151Z,11.02
2023-03-17T16:21:47.438Z,11.02
2023-03-17T16:24:24.128Z,10.86
2023-03-17T16:26:51.572Z,10.70
2023-03-17T16:29:20.456Z,10.69
2023-03-17T16:31:49.600Z,10.54
2023-03-17T16:34:21.819Z,10.26
2023-03-17T16:36:50.435Z,10.23
2023-03-17T16:39:19.841Z,10.17
2023-03-17T16:41:48.160Z,10.13
2023-03-17T16:44:18.472Z,10.03
2023-03-17T16:46:45.821Z,9.99
2023-03-17T16:49:20.383Z,9.90
2023-03-17T16:51:49.400Z,9.74
2023-03-17T16:54:17.224Z,9.59
2023-03-17T16:56:45.168Z,9.52
2023-03-17T16:59:20.373Z,9.44
2023-03-17T17:01:47.253Z,9.45
2023-03-17T17:04:14.390Z,9.41
2023-03-17T17:06:41.251Z,9.23
2023-03-17T17:09:08.383Z,9.28
2023-03-17T17:11:35.347Z,9.23
2023-03-17T17:14:03.624Z,9.09
2023-03-17T17:16:35.425Z,9.02
2023-03-17T17:19:03.700Z,8.96
2023-03-17T17:21:32.036Z,8.99
2023-03-17T17:24:00.442Z,9.06
2023-03-17T17:26:27.266Z,9.01
2023-03-17T17:28:54.460Z,8.89
2023-03-17T17:31:21.289Z,8.97
2023-03-17T17:33:48.540Z,8.82
2023-03-17T17:36:17.053Z,8.79
2023-03-17T17:38:44.695Z,8.62
2023-03-17T17:41:12.395Z,8.68
2023-03-17T17:43:40.257Z,8.61
2023-03-17T17:46:12.615Z,8.66
2023-03-17T17:48:39.909Z,8.51
2023-03-17T17:51:06.913Z,8.38
2023-03-17T17:53:34.044Z,8.28
2023-03-17T17:56:01.142Z,8.20
2023-03-17T17:58:28.424Z,8.12
2023-03-17T18:00:57.169Z,8.04
2023-03-17T18:03:25.927Z,7.95
2023-03-17T18:05:56.755Z,7.89
2023-03-17T18:08:24.623Z,7.78
2023-03-17T18:10:52.608Z,7.78
2023-03-17T18:13:19.708Z,7.75
2023-03-17T18:15:46.876Z,7.70
2023-03-17T18:18:14.049Z,7.71
2023-03-17T18:20:41.019Z,7.61
2023-03-17T18:23:08.344Z,7.61
2023-03-17T18:25:35.717Z,7.66
2023-03-17T18:28:03.397Z,7.64
2023-03-17T18:30:34.787Z,7.61
2023-03-17T18:33:16.463Z,7.51
2023-03-17T18:35:45.566Z,7.72
2023-03-17T18:38:12.843Z,7.57
2023-03-17T18:40:41.373Z,7.50
2023-03-17T18:43:08.403Z,7.43
2023-03-17T18:45:35.333Z,7.38
2023-03-17T18:48:02.527Z,7.35
2023-03-17T18:50:29.683Z,7.24
2023-03-17T18:52:57.295Z,7.14
2023-03-17T18:55:24.402Z,7.12
2023-03-17T18:57:51.934Z,7.01
2023-03-17T19:00:19.017Z,6.91
2023-03-17T19:02:46.906Z,7.03
2023-03-17T19:05:14.367Z,6.86
2023-03-17T19:07:41.961Z,6.79
2023-03-17T19:10:10.898Z,6.75
2023-03-17T19:12:38.310Z,6.80
2023-03-17T19:15:06.450Z,6.64
2023-03-17T19:17:33.801Z,6.61
2023-03-17T19:20:01.047Z,6.62
2023-03-17T19:22:28.205Z,6.55
2023-03-17T19:24:54.985Z,6.45
2023-03-17T19:27:22.250Z,6.40
2023-03-17T19:29:49.084Z,6.39
2023-03-17T19:32:17.228Z,6.39
2023-03-17T19:34:44.108Z,6.31
2023-03-17T19:37:11.185Z,6.37
2023-03-17T19:39:37.959Z,6.24
2023-03-17T19:42:05.176Z,6.19
2023-03-17T19:44:31.980Z,6.10
2023-03-17T19:47:01.620Z,6.11
2023-03-17T19:49:28.637Z,6.12
2023-03-17T19:51:56.486Z,6.07
2023-03-17T19:54:23.533Z,6.07
2023-03-17T19:56:51.012Z,6.03
2023-03-17T19:59:19.761Z,6.04
2023-03-17T20:01:48.736Z,5.97
2023-03-17T20:04:19.572Z,5.94
2023-03-17T20:06:47.045Z,5.86
2023-03-17T20:09:14.609Z,5.83
2023-03-17T20:11:44.606Z,5.83
2023-03-17T20:14:11.500Z,5.74
2023-03-17T20:16:39.821Z,5.69
2023-03-17T20:19:08.309Z,5.69
2023-03-17T20:21:35.869Z,5.58
2023-03-17T20:24:03.467Z,5.54
2023-03-17T20:26:30.563Z,5.52
2023-03-17T20:28:57.515Z,5.38
2023-03-17T20:31:25.407Z,5.33
2023-03-17T20:33:52.283Z,5.19
2023-03-17T20:36:19.559Z,5.19
2023-03-17T20:38:46.710Z,5.11
2023-03-17T20:41:17.238Z,5.07
2023-03-17T20:43:45.297Z,4.98
2023-03-17T20:46:18.715Z,5.00
2023-03-17T20:48:48.822Z,5.02
2023-03-17T20:51:16.751Z,4.93
2023-03-17T20:53:46.347Z,4.93
2023-03-17T20:56:16.664Z,4.70
2023-03-17T20:58:45.411Z,4.72
2023-03-17T21:01:14.108Z,4.72
2023-03-17T21:03:42.471Z,4.63
2023-03-17T21:06:10.609Z,4.49
2023-03-17T21:08:38.739Z,4.48
2023-03-17T21:11:08.066Z,4.37
2023-03-17T21:13:35.601Z,4.45
2023-03-17T21:16:02.920Z,4.39
2023-03-17T21:18:30.110Z,4.22
2023-03-17T21:20:57.287Z,4.17
2023-03-17T21:23:24.093Z,4.20
2023-03-17T21:25:56.058Z,4.15
2023-03-17T21:28:26.333Z,4.31
2023-03-17T21:30:53.651Z,4.00
2023-03-17T21:33:23.577Z,3.97
2023-03-17T21:35:50.949Z,3.95
2023-03-17T21:38:17.969Z,3.98
2023-03-17T21:40:45.665Z,4.11
2023-03-17T21:43:13.484Z,4.02
2023-03-17T21:45:42.057Z,3.89
2023-03-17T21:48:08.978Z,3.84
2023-03-17T21:50:37.144Z,3.78
2023-03-17T21:53:04.822Z,3.66
2023-03-17T21:55:31.940Z,3.63
2023-03-17T21:57:59.126Z,3.68
2023-03-17T22:00:30.956Z,3.63
2023-03-17T22:03:02.706Z,3.69
2023-03-17T22:05:30.719Z,3.69
2023-03-17T22:07:57.802Z,3.79
2023-03-17T22:10:24.889Z,3.67
2023-03-17T22:12:52.063Z,3.54
2023-03-17T22:15:19.824Z,3.43
2023-03-17T22:17:47.182Z,3.43
2023-03-17T22:20:14.349Z,3.32
2023-03-17T22:22:41.138Z,3.37
2023-03-17T22:25:08.655Z,3.31
2023-03-17T22:27:35.746Z,3.24
2023-03-17T22:30:02.966Z,3.14
2023-03-17T22:32:29.900Z,3.27
2023-03-17T22:34:57.026Z,3.23
2023-03-17T22:37:24.703Z,3.21
2023-03-17T22:39:52.247Z,3.37
2023-03-17T22:42:19.139Z,3.34
2023-03-17T22:44:46.303Z,3.21
2023-03-17T22:47:13.134Z,3.26
2023-03-17T22:49:43.633Z,3.15
2023-03-17T22:52:10.861Z,3.20
2023-03-17T22:54:37.940Z,3.12
2023-03-17T22:57:05.694Z,3.16
2023-03-17T22:59:33.183Z,2.99
2023-03-17T23:02:00.162Z,3.03
2023-03-17T23:04:27.289Z,3.00
2023-03-17T23:06:54.206Z,2.98
2023-03-17T23:09:21.328Z,2.97
2023-03-17T23:11:48.179Z,2.87
2023-03-17T23:14:15.445Z,2.80
2023-03-17T23:16:43.062Z,2.77
2023-03-17T23:19:10.694Z,2.83
2023-03-17T23:21:39.296Z,2.80
2023-03-17T23:24:07.872Z,2.91
2023-03-17T23:26:36.944Z,2.80
2023-03-17T23:29:05.924Z,2.85
2023-03-17T23:31:34.118Z,2.83
2023-03-17T23:34:01.221Z,2.85
2023-03-17T23:36:28.323Z,2.95
2023-03-17T23:38:55.560Z,2.87
2023-03-17T23:41:22.746Z,2.87
2023-03-17T23:43:49.914Z,2.79
2023-03-17T23:46:17.770Z,2.82
2023-03-17T23:48:45.009Z,2.77
2023-03-17T23:51:12.890Z,2.71
2023-03-17T23:53:40.302Z,2.77
2023-03-17T23:56:07.965Z,2.78
2023-03-17T23:58:35.048Z,2.56
